sensor_id;sensor_type;location;lat;lon;timestamp;P1;durP1;ratioP1;P2;durP2;ratioP2
14732;SDS011;7457;50.960;6.830;2024-03-02T00:00:08;2.92;;;2.58;;
14732;SDS011;7457;50.960;6.830;2024-03-02T00:02:44;2.72;;;2.38;;
14732;SDS011;7457;50.960;6.830;2024-03-02T00:05:13;3.78;;;2.60;;
14732;SDS011;7457;50.960;6.830;2024-03-02T00:07:53;2.85;;;2.65;;
14732;SDS011;7457;50.960;6.830;2024-03-02T00:10:20;4.38;;;2.80;;
14732;SDS011;7457;50.960;6.830;2024-03-02T00:12:50;2.50;;;2.13;;
14732;SDS011;7457;50.960;6.830;2024-03-02T00:18:20;2.47;;;2.25;;
14732;SDS011;7457;50.960;6.830;2024-03-02T00:20:52;3.85;;;2.30;;
14732;SDS011;7457;50.960;6.830;2024-03-02T00:23:24;2.17;;;1.95;;
14732;SDS011;7457;50.960;6.830;2024-03-02T00:25:55;3.50;;;2.28;;
14732;SDS011;7457;50.960;6.830;2024-03-02T00:28:23;2.35;;;1.88;;
14732;SDS011;7457;50.960;6.830;2024-03-02T00:33:42;5.85;;;2.33;;
14732;SDS011;7457;50.960;6.830;2024-03-02T00:36:09;2.10;;;1.90;;
14732;SDS011;7457;50.960;6.830;2024-03-02T00:38:42;2.17;;;1.98;;
14732;SDS011;7457;50.960;6.830;2024-03-02T00:41:24;2.00;;;1.90;;
14732;SDS011;7457;50.960;6.830;2024-03-02T00:44:02;2.28;;;2.08;;
14732;SDS011;7457;50.960;6.830;2024-03-02T00:46:33;3.72;;;2.50;;
14732;SDS011;7457;50.960;6.830;2024-03-02T00:49:17;2.40;;;2.20;;
14732;SDS011;7457;50.960;6.830;2024-03-02T00:51:46;2.25;;;2.00;;
14732;SDS011;7457;50.960;6.830;2024-03-02T00:54:23;2.33;;;2.10;;
14732;SDS011;7457;50.960;6.830;2024-03-02T00:56:54;2.33;;;2.08;;
14732;SDS011;7457;50.960;6.830;2024-03-02T00:59:21;3.08;;;2.20;;
14732;SDS011;7457;50.960;6.830;2024-03-02T01:01:48;2.85;;;2.00;;
14732;SDS011;7457;50.960;6.830;2024-03-02T01:04:14;2.55;;;1.90;;
14732;SDS011;7457;50.960;6.830;2024-03-02T01:06:41;2.58;;;1.77;;
14732;SDS011;7457;50.960;6.830;2024-03-02T01:09:08;2.83;;;2.05;;
14732;SDS011;7457;50.960;6.830;2024-03-02T01:11:33;1.92;;;1.73;;
14732;SDS011;7457;50.960;6.830;2024-03-02T01:13:59;2.33;;;2.13;;
14732;SDS011;7457;50.960;6.830;2024-03-02T01:16:25;2.47;;;1.92;;
14732;SDS011;7457;50.960;6.830;2024-03-02T01:18:51;3.40;;;1.95;;
14732;SDS011;7457;50.960;6.830;2024-03-02T01:21:16;2.42;;;2.20;;
14732;SDS011;7457;50.960;6.830;2024-03-02T01:23:42;2.22;;;2.00;;
14732;SDS011;7457;50.960;6.830;2024-03-02T01:26:08;3.58;;;2.10;;
14732;SDS011;7457;50.960;6.830;2024-03-02T01:28:34;3.03;;;2.22;;
14732;SDS011;7457;50.960;6.830;2024-03-02T01:31:00;3.55;;;2.55;;
14732;SDS011;7457;50.960;6.830;2024-03-02T01:33:27;2.03;;;1.90;;
14732;SDS011;7457;50.960;6.830;2024-03-02T01:35:53;2.85;;;2.38;;
14732;SDS011;7457;50.960;6.830;2024-03-02T01:38:18;2.42;;;2.22;;
14732;SDS011;7457;50.960;6.830;2024-03-02T01:40:45;2.00;;;1.85;;
14732;SDS011;7457;50.960;6.830;2024-03-02T01:43:11;2.08;;;1.90;;
14732;SDS011;7457;50.960;6.830;2024-03-02T01:45:37;3.95;;;2.28;;
14732;SDS011;7457;50.960;6.830;2024-03-02T01:48:06;2.97;;;2.17;;
14732;SDS011;7457;50.960;6.830;2024-03-02T01:50:32;2.25;;;1.95;;
14732;SDS011;7457;50.960;6.830;2024-03-02T01:52:59;2.33;;;2.13;;
14732;SDS011;7457;50.960;6.830;2024-03-02T01:55:25;4.15;;;1.85;;
14732;SDS011;7457;50.960;6.830;2024-03-02T01:57:52;2.30;;;2.10;;
14732;SDS011;7457;50.960;6.830;2024-03-02T02:00:19;2.15;;;1.95;;
14732;SDS011;7457;50.960;6.830;2024-03-02T02:02:45;3.58;;;2.10;;
14732;SDS011;7457;50.960;6.830;2024-03-02T02:05:12;2.92;;;2.20;;
14732;SDS011;7457;50.960;6.830;2024-03-02T02:07:40;2.10;;;1.90;;
14732;SDS011;7457;50.960;6.830;2024-03-02T02:10:07;1.88;;;1.77;;
14732;SDS011;7457;50.960;6.830;2024-03-02T02:12:33;1.90;;;1.80;;
14732;SDS011;7457;50.960;6.830;2024-03-02T02:14:58;2.63;;;1.73;;
14732;SDS011;7457;50.960;6.830;2024-03-02T02:17:24;3.35;;;2.30;;
14732;SDS011;7457;50.960;6.830;2024-03-02T02:19:50;2.53;;;2.22;;
14732;SDS011;7457;50.960;6.830;2024-03-02T02:22:16;2.05;;;1.80;;
14732;SDS011;7457;50.960;6.830;2024-03-02T02:24:41;2.33;;;2.00;;
14732;SDS011;7457;50.960;6.830;2024-03-02T02:27:07;1.95;;;1.85;;
14732;SDS011;7457;50.960;6.830;2024-03-02T02:29:34;2.08;;;1.90;;
14732;SDS011;7457;50.960;6.830;2024-03-02T02:32:00;2.85;;;2.13;;
14732;SDS011;7457;50.960;6.830;2024-03-02T02:34:26;2.35;;;2.15;;
14732;SDS011;7457;50.960;6.830;2024-03-02T02:36:52;2.15;;;1.95;;
14732;SDS011;7457;50.960;6.830;2024-03-02T02:39:18;1.95;;;1.80;;
14732;SDS011;7457;50.960;6.830;2024-03-02T02:41:47;2.67;;;2.33;;
14732;SDS011;7457;50.960;6.830;2024-03-02T02:44:13;2.83;;;1.77;;
14732;SDS011;7457;50.960;6.830;2024-03-02T02:46:39;3.03;;;2.13;;
14732;SDS011;7457;50.960;6.830;2024-03-02T02:49:06;2.72;;;1.92;;
14732;SDS011;7457;50.960;6.830;2024-03-02T02:51:32;2.45;;;2.10;;
14732;SDS011;7457;50.960;6.830;2024-03-02T02:53:57;2.38;;;2.17;;
14732;SDS011;7457;50.960;6.830;2024-03-02T02:56:23;1.88;;;1.77;;
14732;SDS011;7457;50.960;6.830;2024-03-02T02:58:49;1.80;;;1.63;;
14732;SDS011;7457;50.960;6.830;2024-03-02T03:01:15;2.75;;;1.88;;
14732;SDS011;7457;50.960;6.830;2024-03-02T03:03:44;2.50;;;2.10;;
14732;SDS011;7457;50.960;6.830;2024-03-02T03:06:10;4.13;;;2.20;;
14732;SDS011;7457;50.960;6.830;2024-03-02T03:08:37;3.45;;;2.45;;
14732;SDS011;7457;50.960;6.830;2024-03-02T03:11:03;2.53;;;2.35;;
14732;SDS011;7457;50.960;6.830;2024-03-02T03:13:30;2.40;;;2.20;;
14732;SDS011;7457;50.960;6.830;2024-03-02T03:15:57;2.10;;;1.90;;
14732;SDS011;7457;50.960;6.830;2024-03-02T03:18:22;3.70;;;2.00;;
14732;SDS011;7457;50.960;6.830;2024-03-02T03:20:48;2.35;;;2.15;;
14732;SDS011;7457;50.960;6.830;2024-03-02T03:23:15;2.00;;;1.90;;
14732;SDS011;7457;50.960;6.830;2024-03-02T03:25:42;2.80;;;2.10;;
14732;SDS011;7457;50.960;6.830;2024-03-02T03:28:08;2.28;;;2.08;;
14732;SDS011;7457;50.960;6.830;2024-03-02T03:30:37;2.30;;;2.00;;
14732;SDS011;7457;50.960;6.830;2024-03-02T03:33:04;2.13;;;1.92;;
14732;SDS011;7457;50.960;6.830;2024-03-02T03:35:33;2.72;;;2.03;;
14732;SDS011;7457;50.960;6.830;2024-03-02T03:37:59;2.30;;;2.10;;
14732;SDS011;7457;50.960;6.830;2024-03-02T03:40:24;2.22;;;2.03;;
14732;SDS011;7457;50.960;6.830;2024-03-02T03:42:51;2.35;;;1.98;;
14732;SDS011;7457;50.960;6.830;2024-03-02T03:45:17;2.22;;;2.05;;
14732;SDS011;7457;50.960;6.830;2024-03-02T03:47:43;2.38;;;1.80;;
14732;SDS011;7457;50.960;6.830;2024-03-02T03:50:08;2.85;;;2.30;;
14732;SDS011;7457;50.960;6.830;2024-03-02T03:52:35;2.17;;;2.00;;
14732;SDS011;7457;50.960;6.830;2024-03-02T03:55:00;2.30;;;2.10;;
14732;SDS011;7457;50.960;6.830;2024-03-02T03:57:26;3.50;;;2.40;;
14732;SDS011;7457;50.960;6.830;2024-03-02T03:59:52;2.83;;;2.20;;
14732;SDS011;7457;50.960;6.830;2024-03-02T04:02:19;3.10;;;2.20;;
14732;SDS011;7457;50.960;6.830;2024-03-02T04:04:44;2.55;;;2.35;;
14732;SDS011;7457;50.960;6.830;2024-03-02T04:07:11;2.60;;;2.40;;
14732;SDS011;7457;50.960;6.830;2024-03-02T04:09:36;3.70;;;2.47;;
14732;SDS011;7457;50.960;6.830;2024-03-02T04:12:02;3.00;;;2.72;;
14732;SDS011;7457;50.960;6.830;2024-03-02T04:14:28;2.58;;;2.38;;
14732;SDS011;7457;50.960;6.830;2024-03-02T04:16:54;2.70;;;2.50;;
14732;SDS011;7457;50.960;6.830;2024-03-02T04:19:20;2.83;;;2.63;;
14732;SDS011;7457;50.960;6.830;2024-03-02T04:21:46;3.15;;;2.85;;
14732;SDS011;7457;50.960;6.830;2024-03-02T04:24:12;3.13;;;2.83;;
14732;SDS011;7457;50.960;6.830;2024-03-02T04:26:37;3.38;;;2.67;;
14732;SDS011;7457;50.960;6.830;2024-03-02T04:29:03;2.97;;;2.67;;
14732;SDS011;7457;50.960;6.830;2024-03-02T04:31:29;3.70;;;2.80;;
14732;SDS011;7457;50.960;6.830;2024-03-02T04:33:55;5.70;;;2.75;;
14732;SDS011;7457;50.960;6.830;2024-03-02T04:36:20;2.67;;;2.47;;
14732;SDS011;7457;50.960;6.830;2024-03-02T04:38:46;4.72;;;2.90;;
14732;SDS011;7457;50.960;6.830;2024-03-02T04:41:13;3.50;;;2.70;;
14732;SDS011;7457;50.960;6.830;2024-03-02T04:43:38;2.97;;;2.72;;
14732;SDS011;7457;50.960;6.830;2024-03-02T04:46:05;3.33;;;3.03;;
14732;SDS011;7457;50.960;6.830;2024-03-02T04:48:32;2.63;;;2.42;;
14732;SDS011;7457;50.960;6.830;2024-03-02T04:50:59;3.67;;;2.50;;
14732;SDS011;7457;50.960;6.830;2024-03-02T04:53:25;4.03;;;2.30;;
14732;SDS011;7457;50.960;6.830;2024-03-02T04:55:50;2.35;;;2.00;;
14732;SDS011;7457;50.960;6.830;2024-03-02T04:58:35;3.17;;;2.10;;
14732;SDS011;7457;50.960;6.830;2024-03-02T05:01:01;3.58;;;2.30;;
14732;SDS011;7457;50.960;6.830;2024-03-02T05:03:26;2.75;;;2.30;;
14732;SDS011;7457;50.960;6.830;2024-03-02T05:05:52;3.33;;;2.25;;
14732;SDS011;7457;50.960;6.830;2024-03-02T05:08:18;3.03;;;2.15;;
14732;SDS011;7457;50.960;6.830;2024-03-02T05:10:43;2.53;;;2.33;;
14732;SDS011;7457;50.960;6.830;2024-03-02T05:13:09;2.53;;;2.30;;
14732;SDS011;7457;50.960;6.830;2024-03-02T05:15:35;2.50;;;2.10;;
14732;SDS011;7457;50.960;6.830;2024-03-02T05:18:01;3.17;;;2.38;;
14732;SDS011;7457;50.960;6.830;2024-03-02T05:20:30;5.30;;;2.67;;
14732;SDS011;7457;50.960;6.830;2024-03-02T05:22:56;4.05;;;2.45;;
14732;SDS011;7457;50.960;6.830;2024-03-02T05:25:21;3.80;;;2.15;;
14732;SDS011;7457;50.960;6.830;2024-03-02T05:27:47;5.70;;;2.30;;
14732;SDS011;7457;50.960;6.830;2024-03-02T05:30:13;2.20;;;2.00;;
14732;SDS011;7457;50.960;6.830;2024-03-02T05:32:39;2.40;;;2.17;;
14732;SDS011;7457;50.960;6.830;2024-03-02T05:35:05;2.58;;;1.92;;
14732;SDS011;7457;50.960;6.830;2024-03-02T05:37:31;3.70;;;2.63;;
14732;SDS011;7457;50.960;6.830;2024-03-02T05:39:57;2.38;;;2.17;;
14732;SDS011;7457;50.960;6.830;2024-03-02T05:42:24;3.05;;;2.15;;
14732;SDS011;7457;50.960;6.830;2024-03-02T05:44:50;2.47;;;2.05;;
14732;SDS011;7457;50.960;6.830;2024-03-02T05:47:15;3.22;;;2.35;;
14732;SDS011;7457;50.960;6.830;2024-03-02T05:49:41;2.50;;;2.22;;
14732;SDS011;7457;50.960;6.830;2024-03-02T05:52:08;2.35;;;2.08;;
14732;SDS011;7457;50.960;6.830;2024-03-02T05:54:34;2.55;;;1.98;;
14732;SDS011;7457;50.960;6.830;2024-03-02T05:56:59;2.22;;;2.03;;
14732;SDS011;7457;50.960;6.830;2024-03-02T05:59:41;2.42;;;2.20;;
14732;SDS011;7457;50.960;6.830;2024-03-02T06:02:08;2.72;;;2.00;;
14732;SDS011;7457;50.960;6.830;2024-03-02T06:04:33;2.70;;;2.08;;
14732;SDS011;7457;50.960;6.830;2024-03-02T06:06:59;2.85;;;2.55;;
14732;SDS011;7457;50.960;6.830;2024-03-02T06:09:25;3.58;;;2.30;;
14732;SDS011;7457;50.960;6.830;2024-03-02T06:11:51;1.98;;;1.83;;
14732;SDS011;7457;50.960;6.830;2024-03-02T06:14:17;2.97;;;2.50;;
14732;SDS011;7457;50.960;6.830;2024-03-02T06:16:42;2.50;;;2.30;;
14732;SDS011;7457;50.960;6.830;2024-03-02T06:19:08;3.17;;;2.40;;
14732;SDS011;7457;50.960;6.830;2024-03-02T06:21:34;2.85;;;2.40;;
14732;SDS011;7457;50.960;6.830;2024-03-02T06:24:00;3.55;;;2.28;;
14732;SDS011;7457;50.960;6.830;2024-03-02T06:26:26;2.75;;;2.20;;
14732;SDS011;7457;50.960;6.830;2024-03-02T06:28:52;2.78;;;2.03;;
14732;SDS011;7457;50.960;6.830;2024-03-02T06:31:17;2.60;;;2.25;;
14732;SDS011;7457;50.960;6.830;2024-03-02T06:33:43;2.83;;;2.30;;
14732;SDS011;7457;50.960;6.830;2024-03-02T06:36:09;2.35;;;2.13;;
14732;SDS011;7457;50.960;6.830;2024-03-02T06:38:36;3.08;;;2.80;;
14732;SDS011;7457;50.960;6.830;2024-03-02T06:41:02;2.97;;;2.20;;
14732;SDS011;7457;50.960;6.830;2024-03-02T06:43:28;2.78;;;2.13;;
14732;SDS011;7457;50.960;6.830;2024-03-02T06:45:54;2.38;;;2.22;;
14732;SDS011;7457;50.960;6.830;2024-03-02T06:48:19;2.40;;;2.10;;
14732;SDS011;7457;50.960;6.830;2024-03-02T06:50:49;3.80;;;2.03;;
14732;SDS011;7457;50.960;6.830;2024-03-02T06:53:15;3.13;;;2.25;;
14732;SDS011;7457;50.960;6.830;2024-03-02T06:55:45;2.50;;;2.17;;
14732;SDS011;7457;50.960;6.830;2024-03-02T06:58:12;2.63;;;2.13;;
14732;SDS011;7457;50.960;6.830;2024-03-02T07:00:38;3.70;;;2.17;;
14732;SDS011;7457;50.960;6.830;2024-03-02T07:03:04;2.15;;;1.95;;
14732;SDS011;7457;50.960;6.830;2024-03-02T07:05:30;2.75;;;2.05;;
14732;SDS011;7457;50.960;6.830;2024-03-02T07:07:55;2.28;;;1.92;;
14732;SDS011;7457;50.960;6.830;2024-03-02T07:10:21;3.70;;;2.10;;
14732;SDS011;7457;50.960;6.830;2024-03-02T07:12:47;2.00;;;1.90;;
14732;SDS011;7457;50.960;6.830;2024-03-02T07:15:12;2.78;;;1.85;;
14732;SDS011;7457;50.960;6.830;2024-03-02T07:17:57;2.53;;;2.03;;
14732;SDS011;7457;50.960;6.830;2024-03-02T07:20:23;2.45;;;1.80;;
14732;SDS011;7457;50.960;6.830;2024-03-02T07:22:49;2.85;;;2.10;;
14732;SDS011;7457;50.960;6.830;2024-03-02T07:25:14;2.03;;;1.70;;
14732;SDS011;7457;50.960;6.830;2024-03-02T07:27:40;1.92;;;1.77;;
14732;SDS011;7457;50.960;6.830;2024-03-02T07:30:06;2.05;;;1.88;;
14732;SDS011;7457;50.960;6.830;2024-03-02T07:32:32;2.22;;;2.00;;
14732;SDS011;7457;50.960;6.830;2024-03-02T07:34:58;2.65;;;1.60;;
14732;SDS011;7457;50.960;6.830;2024-03-02T07:37:24;4.32;;;1.73;;
14732;SDS011;7457;50.960;6.830;2024-03-02T07:39:50;2.67;;;2.10;;
14732;SDS011;7457;50.960;6.830;2024-03-02T07:42:16;2.33;;;2.05;;
14732;SDS011;7457;50.960;6.830;2024-03-02T07:44:43;4.03;;;1.92;;
14732;SDS011;7457;50.960;6.830;2024-03-02T07:47:10;3.08;;;2.22;;
14732;SDS011;7457;50.960;6.830;2024-03-02T07:49:36;2.95;;;2.08;;
14732;SDS011;7457;50.960;6.830;2024-03-02T07:52:02;2.47;;;1.83;;
14732;SDS011;7457;50.960;6.830;2024-03-02T07:54:27;2.00;;;1.90;;
14732;SDS011;7457;50.960;6.830;2024-03-02T07:56:53;1.90;;;1.70;;
14732;SDS011;7457;50.960;6.830;2024-03-02T07:59:19;2.80;;;2.00;;
14732;SDS011;7457;50.960;6.830;2024-03-02T08:01:47;3.03;;;2.00;;
14732;SDS011;7457;50.960;6.830;2024-03-02T08:04:14;2.65;;;2.08;;
14732;SDS011;7457;50.960;6.830;2024-03-02T08:06:39;2.88;;;1.88;;
14732;SDS011;7457;50.960;6.830;2024-03-02T08:09:05;2.97;;;2.03;;
14732;SDS011;7457;50.960;6.830;2024-03-02T08:11:35;3.50;;;2.08;;
14732;SDS011;7457;50.960;6.830;2024-03-02T08:14:00;2.30;;;2.05;;
14732;SDS011;7457;50.960;6.830;2024-03-02T08:16:26;5.20;;;2.15;;
14732;SDS011;7457;50.960;6.830;2024-03-02T08:18:52;2.60;;;1.88;;
14732;SDS011;7457;50.960;6.830;2024-03-02T08:21:18;3.55;;;2.10;;
14732;SDS011;7457;50.960;6.830;2024-03-02T08:23:44;2.72;;;2.08;;
14732;SDS011;7457;50.960;6.830;2024-03-02T08:26:10;2.72;;;2.05;;
14732;SDS011;7457;50.960;6.830;2024-03-02T08:28:36;2.17;;;1.85;;
14732;SDS011;7457;50.960;6.830;2024-03-02T08:31:05;2.53;;;1.95;;
14732;SDS011;7457;50.960;6.830;2024-03-02T08:33:32;2.08;;;1.92;;
14732;SDS011;7457;50.960;6.830;2024-03-02T08:35:57;3.15;;;1.85;;
14732;SDS011;7457;50.960;6.830;2024-03-02T08:38:24;2.08;;;1.70;;
14732;SDS011;7457;50.960;6.830;2024-03-02T08:40:50;2.85;;;1.90;;
14732;SDS011;7457;50.960;6.830;2024-03-02T08:43:15;1.88;;;1.67;;
14732;SDS011;7457;50.960;6.830;2024-03-02T08:45:41;2.63;;;1.70;;
14732;SDS011;7457;50.960;6.830;2024-03-02T08:48:07;4.25;;;1.98;;
14732;SDS011;7457;50.960;6.830;2024-03-02T08:50:34;3.22;;;1.77;;
14732;SDS011;7457;50.960;6.830;2024-03-02T08:53:03;2.10;;;1.52;;
14732;SDS011;7457;50.960;6.830;2024-03-02T08:55:29;2.95;;;1.50;;
14732;SDS011;7457;50.960;6.830;2024-03-02T08:57:55;3.38;;;1.70;;
14732;SDS011;7457;50.960;6.830;2024-03-02T09:00:21;1.88;;;1.70;;
14732;SDS011;7457;50.960;6.830;2024-03-02T09:02:47;2.47;;;2.00;;
14732;SDS011;7457;50.960;6.830;2024-03-02T09:05:13;2.70;;;1.67;;
14732;SDS011;7457;50.960;6.830;2024-03-02T09:07:38;1.92;;;1.45;;
14732;SDS011;7457;50.960;6.830;2024-03-02T09:10:05;1.58;;;1.48;;
14732;SDS011;7457;50.960;6.830;2024-03-02T09:12:31;2.58;;;1.58;;
14732;SDS011;7457;50.960;6.830;2024-03-02T09:14:58;2.80;;;1.90;;
14732;SDS011;7457;50.960;6.830;2024-03-02T09:17:24;1.85;;;1.70;;
14732;SDS011;7457;50.960;6.830;2024-03-02T09:19:50;4.85;;;1.63;;
14732;SDS011;7457;50.960;6.830;2024-03-02T09:22:19;2.05;;;1.65;;
14732;SDS011;7457;50.960;6.830;2024-03-02T09:24:45;1.98;;;1.20;;
14732;SDS011;7457;50.960;6.830;2024-03-02T09:27:10;1.00;;;0.90;;
14732;SDS011;7457;50.960;6.830;2024-03-02T09:29:36;1.42;;;1.08;;
14732;SDS011;7457;50.960;6.830;2024-03-02T09:32:03;2.67;;;1.15;;
14732;SDS011;7457;50.960;6.830;2024-03-02T09:34:29;2.03;;;1.02;;
14732;SDS011;7457;50.960;6.830;2024-03-02T09:36:55;2.83;;;1.25;;
14732;SDS011;7457;50.960;6.830;2024-03-02T09:39:20;1.17;;;0.90;;
14732;SDS011;7457;50.960;6.830;2024-03-02T09:41:47;2.45;;;1.30;;
14732;SDS011;7457;50.960;6.830;2024-03-02T09:44:13;3.83;;;2.85;;
14732;SDS011;7457;50.960;6.830;2024-03-02T09:46:39;5.07;;;3.35;;
14732;SDS011;7457;50.960;6.830;2024-03-02T09:49:05;3.33;;;1.30;;
14732;SDS011;7457;50.960;6.830;2024-03-02T09:51:31;1.48;;;1.20;;
14732;SDS011;7457;50.960;6.830;2024-03-02T09:53:57;1.67;;;1.50;;
14732;SDS011;7457;50.960;6.830;2024-03-02T09:56:26;1.33;;;1.20;;
14732;SDS011;7457;50.960;6.830;2024-03-02T09:58:51;2.88;;;1.38;;
14732;SDS011;7457;50.960;6.830;2024-03-02T10:01:17;2.17;;;1.20;;
14732;SDS011;7457;50.960;6.830;2024-03-02T10:03:44;1.38;;;1.27;;
14732;SDS011;7457;50.960;6.830;2024-03-02T10:08:46;2.45;;;1.67;;
14732;SDS011;7457;50.960;6.830;2024-03-02T10:11:36;2.25;;;1.38;;
14732;SDS011;7457;50.960;6.830;2024-03-02T10:16:38;2.17;;;1.60;;
14732;SDS011;7457;50.960;6.830;2024-03-02T10:19:18;1.25;;;0.90;;
14732;SDS011;7457;50.960;6.830;2024-03-02T10:21:52;3.28;;;1.00;;
14732;SDS011;7457;50.960;6.830;2024-03-02T10:24:19;1.60;;;0.90;;
14732;SDS011;7457;50.960;6.830;2024-03-02T10:26:48;1.90;;;1.10;;
14732;SDS011;7457;50.960;6.830;2024-03-02T10:29:14;2.20;;;1.30;;
14732;SDS011;7457;50.960;6.830;2024-03-02T10:31:44;1.55;;;0.95;;
14732;SDS011;7457;50.960;6.830;2024-03-02T10:34:11;1.30;;;1.20;;
14732;SDS011;7457;50.960;6.830;2024-03-02T10:36:38;2.78;;;1.40;;
14732;SDS011;7457;50.960;6.830;2024-03-02T10:39:07;3.17;;;1.40;;
14732;SDS011;7457;50.960;6.830;2024-03-02T10:41:37;2.17;;;1.42;;
14732;SDS011;7457;50.960;6.830;2024-03-02T10:44:03;3.30;;;1.52;;
14732;SDS011;7457;50.960;6.830;2024-03-02T10:46:31;2.80;;;1.77;;
14732;SDS011;7457;50.960;6.830;2024-03-02T10:48:59;2.97;;;1.90;;
14732;SDS011;7457;50.960;6.830;2024-03-02T10:51:26;3.15;;;1.92;;
14732;SDS011;7457;50.960;6.830;2024-03-02T10:53:56;2.08;;;1.67;;
14732;SDS011;7457;50.960;6.830;2024-03-02T10:56:30;1.77;;;1.67;;
14732;SDS011;7457;50.960;6.830;2024-03-02T10:59:06;1.85;;;1.73;;
14732;SDS011;7457;50.960;6.830;2024-03-02T11:01:47;2.92;;;1.88;;
14732;SDS011;7457;50.960;6.830;2024-03-02T11:04:15;2.33;;;1.80;;
14732;SDS011;7457;50.960;6.830;2024-03-02T11:06:47;1.75;;;1.65;;
14732;SDS011;7457;50.960;6.830;2024-03-02T11:09:14;1.90;;;1.70;;
14732;SDS011;7457;50.960;6.830;2024-03-02T11:11:42;3.00;;;1.45;;
14732;SDS011;7457;50.960;6.830;2024-03-02T11:14:13;2.22;;;1.42;;
14732;SDS011;7457;50.960;6.830;2024-03-02T11:16:41;1.75;;;1.60;;
14732;SDS011;7457;50.960;6.830;2024-03-02T11:19:09;3.72;;;1.88;;
14732;SDS011;7457;50.960;6.830;2024-03-02T11:21:36;2.30;;;1.13;;
14732;SDS011;7457;50.960;6.830;2024-03-02T11:26:49;3.53;;;1.70;;
14732;SDS011;7457;50.960;6.830;2024-03-02T11:32:03;3.22;;;1.70;;
14732;SDS011;7457;50.960;6.830;2024-03-02T11:34:31;2.15;;;1.80;;
14732;SDS011;7457;50.960;6.830;2024-03-02T11:36:58;2.30;;;1.52;;
14732;SDS011;7457;50.960;6.830;2024-03-02T11:39:27;3.83;;;1.65;;
14732;SDS011;7457;50.960;6.830;2024-03-02T11:41:55;2.15;;;1.60;;
14732;SDS011;7457;50.960;6.830;2024-03-02T11:44:21;2.70;;;1.23;;
14732;SDS011;7457;50.960;6.830;2024-03-02T11:46:59;1.75;;;1.60;;
14732;SDS011;7457;50.960;6.830;2024-03-02T11:52:13;4.85;;;1.70;;
14732;SDS011;7457;50.960;6.830;2024-03-02T11:54:43;2.72;;;1.50;;
14732;SDS011;7457;50.960;6.830;2024-03-02T11:57:14;2.63;;;1.38;;
14732;SDS011;7457;50.960;6.830;2024-03-02T11:59:41;2.08;;;1.42;;
14732;SDS011;7457;50.960;6.830;2024-03-02T12:02:12;3.42;;;1.67;;
14732;SDS011;7457;50.960;6.830;2024-03-02T12:04:38;1.50;;;1.40;;
14732;SDS011;7457;50.960;6.830;2024-03-02T12:07:05;1.48;;;1.33;;
14732;SDS011;7457;50.960;6.830;2024-03-02T12:09:31;1.40;;;1.30;;
14732;SDS011;7457;50.960;6.830;2024-03-02T12:12:07;2.97;;;1.50;;
14732;SDS011;7457;50.960;6.830;2024-03-02T12:14:35;1.42;;;1.33;;
14732;SDS011;7457;50.960;6.830;2024-03-02T12:17:02;1.77;;;1.40;;
14732;SDS011;7457;50.960;6.830;2024-03-02T12:19:29;3.80;;;1.48;;
14732;SDS011;7457;50.960;6.830;2024-03-02T12:21:58;1.33;;;1.23;;
14732;SDS011;7457;50.960;6.830;2024-03-02T12:24:26;2.97;;;1.45;;
14732;SDS011;7457;50.960;6.830;2024-03-02T12:26:53;1.50;;;1.20;;
14732;SDS011;7457;50.960;6.830;2024-03-02T12:29:20;1.50;;;1.30;;
14732;SDS011;7457;50.960;6.830;2024-03-02T12:31:52;2.53;;;1.30;;
14732;SDS011;7457;50.960;6.830;2024-03-02T12:34:18;2.05;;;1.40;;
14732;SDS011;7457;50.960;6.830;2024-03-02T12:36:46;1.25;;;1.15;;
14732;SDS011;7457;50.960;6.830;2024-03-02T12:39:18;1.63;;;1.25;;
14732;SDS011;7457;50.960;6.830;2024-03-02T12:41:45;2.67;;;1.60;;
14732;SDS011;7457;50.960;6.830;2024-03-02T12:44:12;1.83;;;1.50;;
14732;SDS011;7457;50.960;6.830;2024-03-02T12:46:37;3.17;;;1.95;;
14732;SDS011;7457;50.960;6.830;2024-03-02T12:49:10;1.95;;;1.35;;
14732;SDS011;7457;50.960;6.830;2024-03-02T12:51:37;1.70;;;1.58;;
14732;SDS011;7457;50.960;6.830;2024-03-02T12:54:07;2.55;;;1.80;;
14732;SDS011;7457;50.960;6.830;2024-03-02T12:56:33;4.18;;;1.85;;
14732;SDS011;7457;50.960;6.830;2024-03-02T12:59:00;1.23;;;1.13;;
14732;SDS011;7457;50.960;6.830;2024-03-02T13:01:28;1.80;;;1.70;;
14732;SDS011;7457;50.960;6.830;2024-03-02T13:03:53;1.85;;;1.40;;
14732;SDS011;7457;50.960;6.830;2024-03-02T13:06:22;3.50;;;1.45;;
14732;SDS011;7457;50.960;6.830;2024-03-02T13:08:49;2.17;;;1.88;;
14732;SDS011;7457;50.960;6.830;2024-03-02T13:11:15;1.83;;;1.67;;
14732;SDS011;7457;50.960;6.830;2024-03-02T13:13:42;2.05;;;1.85;;
14732;SDS011;7457;50.960;6.830;2024-03-02T13:16:08;2.88;;;1.88;;
14732;SDS011;7457;50.960;6.830;2024-03-02T13:18:35;2.80;;;1.95;;
14732;SDS011;7457;50.960;6.830;2024-03-02T13:21:02;2.60;;;1.38;;
14732;SDS011;7457;50.960;6.830;2024-03-02T13:23:28;1.88;;;1.45;;
14732;SDS011;7457;50.960;6.830;2024-03-02T13:25:56;2.00;;;1.40;;
14732;SDS011;7457;50.960;6.830;2024-03-02T13:28:23;3.78;;;1.25;;
14732;SDS011;7457;50.960;6.830;2024-03-02T13:30:50;1.65;;;1.48;;
14732;SDS011;7457;50.960;6.830;2024-03-02T13:33:15;3.67;;;1.75;;
14732;SDS011;7457;50.960;6.830;2024-03-02T13:35:47;4.65;;;2.03;;
14732;SDS011;7457;50.960;6.830;2024-03-02T13:38:19;3.15;;;1.40;;
14732;SDS011;7457;50.960;6.830;2024-03-02T13:40:46;1.67;;;1.10;;
14732;SDS011;7457;50.960;6.830;2024-03-02T13:43:17;4.57;;;1.40;;
14732;SDS011;7457;50.960;6.830;2024-03-02T13:45:46;1.58;;;1.40;;
14732;SDS011;7457;50.960;6.830;2024-03-02T13:48:12;1.30;;;1.20;;
14732;SDS011;7457;50.960;6.830;2024-03-02T13:50:39;1.33;;;1.23;;
14732;SDS011;7457;50.960;6.830;2024-03-02T13:53:08;1.48;;;1.17;;
14732;SDS011;7457;50.960;6.830;2024-03-02T13:55:34;1.95;;;1.35;;
14732;SDS011;7457;50.960;6.830;2024-03-02T13:58:00;1.45;;;1.35;;
14732;SDS011;7457;50.960;6.830;2024-03-02T14:00:26;1.33;;;1.20;;
14732;SDS011;7457;50.960;6.830;2024-03-02T14:02:52;1.98;;;1.10;;
14732;SDS011;7457;50.960;6.830;2024-03-02T14:05:17;2.60;;;1.30;;
14732;SDS011;7457;50.960;6.830;2024-03-02T14:07:44;1.48;;;1.38;;
14732;SDS011;7457;50.960;6.830;2024-03-02T14:10:10;2.20;;;1.30;;
14732;SDS011;7457;50.960;6.830;2024-03-02T14:12:36;1.55;;;1.30;;
14732;SDS011;7457;50.960;6.830;2024-03-02T14:15:02;1.60;;;1.50;;
14732;SDS011;7457;50.960;6.830;2024-03-02T14:17:29;2.47;;;1.45;;
14732;SDS011;7457;50.960;6.830;2024-03-02T14:19:57;2.70;;;1.33;;
14732;SDS011;7457;50.960;6.830;2024-03-02T14:22:24;1.48;;;1.27;;
14732;SDS011;7457;50.960;6.830;2024-03-02T14:24:50;1.50;;;1.40;;
14732;SDS011;7457;50.960;6.830;2024-03-02T14:27:16;1.70;;;1.20;;
14732;SDS011;7457;50.960;6.830;2024-03-02T14:29:42;1.52;;;1.42;;
14732;SDS011;7457;50.960;6.830;2024-03-02T14:32:08;2.20;;;1.27;;
14732;SDS011;7457;50.960;6.830;2024-03-02T14:34:34;2.42;;;1.52;;
14732;SDS011;7457;50.960;6.830;2024-03-02T14:37:00;1.60;;;1.48;;
14732;SDS011;7457;50.960;6.830;2024-03-02T14:39:26;2.10;;;1.10;;
14732;SDS011;7457;50.960;6.830;2024-03-02T14:41:52;1.60;;;1.20;;
14732;SDS011;7457;50.960;6.830;2024-03-02T14:44:18;1.58;;;1.48;;
14732;SDS011;7457;50.960;6.830;2024-03-02T14:46:46;1.70;;;1.20;;
14732;SDS011;7457;50.960;6.830;2024-03-02T14:49:13;3.15;;;1.30;;
14732;SDS011;7457;50.960;6.830;2024-03-02T14:51:39;1.85;;;1.20;;
14732;SDS011;7457;50.960;6.830;2024-03-02T14:54:05;2.88;;;1.45;;
14732;SDS011;7457;50.960;6.830;2024-03-02T14:56:31;3.47;;;1.70;;
14732;SDS011;7457;50.960;6.830;2024-03-02T14:58:57;1.42;;;1.20;;
14732;SDS011;7457;50.960;6.830;2024-03-02T15:01:22;1.15;;;1.08;;
14732;SDS011;7457;50.960;6.830;2024-03-02T15:03:49;1.40;;;1.30;;
14732;SDS011;7457;50.960;6.830;2024-03-02T15:06:16;1.10;;;1.00;;
14732;SDS011;7457;50.960;6.830;2024-03-02T15:08:42;3.38;;;1.20;;
14732;SDS011;7457;50.960;6.830;2024-03-02T15:11:08;1.10;;;1.00;;
14732;SDS011;7457;50.960;6.830;2024-03-02T15:13:34;1.33;;;1.20;;
14732;SDS011;7457;50.960;6.830;2024-03-02T15:16:00;1.17;;;1.10;;
14732;SDS011;7457;50.960;6.830;2024-03-02T15:18:26;1.80;;;1.45;;